sensor_id;sensor_type;location;lat;lon;timestamp;pressure;altitude;pressure_sealevel;temperature;humidity
61337;BME280;47212;41.326;2.104;2023-03-03T00:03:05;101600.38;;;9.20;44.29
61337;BME280;47212;41.326;2.104;2023-03-03T00:08:16;101593.75;;;9.16;44.25
61337;BME280;47212;41.326;2.104;2023-03-03T00:13:26;101590.91;;;9.11;44.74
61337;BME280;47212;41.326;2.104;2023-03-03T00:18:42;101586.78;;;9.08;44.28
61337;BME280;47212;41.326;2.104;2023-03-03T00:23:52;101583.69;;;9.05;44.16
61337;BME280;47212;41.326;2.104;2023-03-03T00:29:30;101575.41;;;9.00;45.19
61337;BME280;47212;41.326;2.104;2023-03-03T00:34:43;101579.06;;;8.93;44.60
61337;BME280;47212;41.326;2.104;2023-03-03T00:39:48;101579.16;;;8.87;45.34
61337;BME280;47212;41.326;2.104;2023-03-03T00:44:59;101580.44;;;8.84;44.75
61337;BME280;47212;41.326;2.104;2023-03-03T00:55:17;101572.25;;;8.73;45.46
61337;BME280;47212;41.326;2.104;2023-03-03T01:00:24;101585.22;;;8.71;45.54
61337;BME280;47212;41.326;2.104;2023-03-03T01:05:43;101575.44;;;8.70;45.20
61337;BME280;47212;41.326;2.104;2023-03-03T01:11:03;101566.00;;;8.72;44.66
61337;BME280;47212;41.326;2.104;2023-03-03T01:16:12;101565.16;;;8.72;44.23
61337;BME280;47212;41.326;2.104;2023-03-03T01:21:17;101549.72;;;8.72;44.29
61337;BME280;47212;41.326;2.104;2023-03-03T01:26:24;101553.50;;;8.71;44.54
61337;BME280;47212;41.326;2.104;2023-03-03T01:31:40;101545.56;;;8.70;44.15
61337;BME280;47212;41.326;2.104;2023-03-03T01:36:52;101535.53;;;8.70;44.60
61337;BME280;47212;41.326;2.104;2023-03-03T01:41:59;101539.75;;;8.66;44.48
61337;BME280;47212;41.326;2.104;2023-03-03T01:47:21;101536.22;;;8.66;45.14
61337;BME280;47212;41.326;2.104;2023-03-03T01:52:45;101541.88;;;8.64;44.35
61337;BME280;47212;41.326;2.104;2023-03-03T01:58:16;101546.09;;;8.60;45.23
61337;BME280;47212;41.326;2.104;2023-03-03T02:03:27;101545.97;;;8.55;45.05
61337;BME280;47212;41.326;2.104;2023-03-03T02:09:01;101538.72;;;8.49;45.26
61337;BME280;47212;41.326;2.104;2023-03-03T02:14:13;101538.13;;;8.47;44.48
61337;BME280;47212;41.326;2.104;2023-03-03T02:31:19;101516.88;;;8.44;44.06
61337;BME280;47212;41.326;2.104;2023-03-03T02:36:36;101518.53;;;8.45;44.93
61337;BME280;47212;41.326;2.104;2023-03-03T02:41:54;101513.72;;;8.47;44.80
61337;BME280;47212;41.326;2.104;2023-03-03T02:47:14;101509.34;;;8.46;44.81
61337;BME280;47212;41.326;2.104;2023-03-03T02:52:21;101509.22;;;8.41;44.69
61337;BME280;47212;41.326;2.104;2023-03-03T02:57:23;101498.66;;;8.32;44.80
61337;BME280;47212;41.326;2.104;2023-03-03T03:02:29;101502.88;;;8.28;45.01
61337;BME280;47212;41.326;2.104;2023-03-03T03:07:36;101508.97;;;8.24;45.14
61337;BME280;47212;41.326;2.104;2023-03-03T03:12:44;101510.50;;;8.20;45.04
61337;BME280;47212;41.326;2.104;2023-03-03T03:18:07;101507.50;;;8.10;45.28
61337;BME280;47212;41.326;2.104;2023-03-03T03:23:20;101507.56;;;8.03;45.90
61337;BME280;47212;41.326;2.104;2023-03-03T03:28:30;101509.31;;;7.97;45.70
61337;BME280;47212;41.326;2.104;2023-03-03T03:33:42;101509.16;;;7.92;45.70
61337;BME280;47212;41.326;2.104;2023-03-03T03:39:00;101509.84;;;7.88;46.14
61337;BME280;47212;41.326;2.104;2023-03-03T03:44:27;101512.38;;;7.83;46.03
61337;BME280;47212;41.326;2.104;2023-03-03T03:49:36;101500.31;;;7.79;45.98
61337;BME280;47212;41.326;2.104;2023-03-03T03:54:43;101495.13;;;7.77;45.94
61337;BME280;47212;41.326;2.104;2023-03-03T03:59:51;101486.63;;;7.74;46.26
61337;BME280;47212;41.326;2.104;2023-03-03T04:05:29;101486.22;;;7.70;47.12
61337;BME280;47212;41.326;2.104;2023-03-03T04:10:37;101488.41;;;7.61;47.13
61337;BME280;47212;41.326;2.104;2023-03-03T04:15:47;101486.59;;;7.55;47.63
61337;BME280;47212;41.326;2.104;2023-03-03T04:20:55;101488.94;;;7.52;47.51
61337;BME280;47212;41.326;2.104;2023-03-03T04:26:00;101491.94;;;7.44;47.19
61337;BME280;47212;41.326;2.104;2023-03-03T04:31:10;101488.63;;;7.42;47.56
61337;BME280;47212;41.326;2.104;2023-03-03T04:36:16;101493.19;;;7.41;48.04
61337;BME280;47212;41.326;2.104;2023-03-03T04:41:25;101497.78;;;7.41;48.12
61337;BME280;47212;41.326;2.104;2023-03-03T04:46:40;101497.34;;;7.44;48.36
61337;BME280;47212;41.326;2.104;2023-03-03T04:51:48;101488.38;;;7.43;47.89
61337;BME280;47212;41.326;2.104;2023-03-03T04:57:01;101496.06;;;7.46;48.05
61337;BME280;47212;41.326;2.104;2023-03-03T05:09:06;101493.59;;;7.45;48.53
61337;BME280;47212;41.326;2.104;2023-03-03T05:14:10;101501.31;;;7.41;49.85
61337;BME280;47212;41.326;2.104;2023-03-03T05:19:56;101504.25;;;7.40;48.29
61337;BME280;47212;41.326;2.104;2023-03-03T05:25:01;101492.00;;;7.37;48.38
61337;BME280;47212;41.326;2.104;2023-03-03T05:30:17;101497.41;;;7.37;48.58
61337;BME280;47212;41.326;2.104;2023-03-03T05:35:25;101506.59;;;7.36;48.37
61337;BME280;47212;41.326;2.104;2023-03-03T05:40:34;101516.59;;;7.35;48.77
61337;BME280;47212;41.326;2.104;2023-03-03T05:45:44;101511.22;;;7.29;48.87
61337;BME280;47212;41.326;2.104;2023-03-03T05:50:58;101518.38;;;7.23;49.33
61337;BME280;47212;41.326;2.104;2023-03-03T05:56:11;101510.91;;;7.19;49.60
61337;BME280;47212;41.326;2.104;2023-03-03T06:01:20;101511.13;;;7.17;49.24
61337;BME280;47212;41.326;2.104;2023-03-03T06:06:26;101521.13;;;7.17;49.52
61337;BME280;47212;41.326;2.104;2023-03-03T06:11:40;101525.94;;;7.15;49.33
61337;BME280;47212;41.326;2.104;2023-03-03T06:16:48;101518.88;;;7.14;49.49
61337;BME280;47212;41.326;2.104;2023-03-03T06:21:53;101523.44;;;7.13;49.82
61337;BME280;47212;41.326;2.104;2023-03-03T06:27:06;101522.84;;;7.11;49.64
61337;BME280;47212;41.326;2.104;2023-03-03T06:32:13;101528.91;;;7.07;49.72
61337;BME280;47212;41.326;2.104;2023-03-03T06:37:30;101535.22;;;7.00;49.16
61337;BME280;47212;41.326;2.104;2023-03-03T06:42:36;101535.03;;;6.95;49.46
61337;BME280;47212;41.326;2.104;2023-03-03T06:47:42;101532.78;;;6.86;49.06
61337;BME280;47212;41.326;2.104;2023-03-03T06:52:47;101541.38;;;6.76;49.50
61337;BME280;47212;41.326;2.104;2023-03-03T06:57:51;101547.00;;;6.75;49.73
61337;BME280;47212;41.326;2.104;2023-03-03T07:03:14;101544.09;;;6.76;50.67
61337;BME280;47212;41.326;2.104;2023-03-03T07:08:34;101551.94;;;6.84;50.19
61337;BME280;47212;41.326;2.104;2023-03-03T07:13:49;101557.75;;;6.94;51.10
61337;BME280;47212;41.326;2.104;2023-03-03T07:19:02;101570.13;;;7.09;50.65
61337;BME280;47212;41.326;2.104;2023-03-03T07:24:26;101568.38;;;7.21;50.47
61337;BME280;47212;41.326;2.104;2023-03-03T07:29:37;101577.00;;;7.36;50.09
61337;BME280;47212;41.326;2.104;2023-03-03T07:34:56;101594.38;;;7.53;49.27
61337;BME280;47212;41.326;2.104;2023-03-03T07:45:46;101589.53;;;9.20;46.64
61337;BME280;47212;41.326;2.104;2023-03-03T07:50:54;101595.78;;;9.74;45.42
61337;BME280;47212;41.326;2.104;2023-03-03T07:56:26;101586.16;;;10.30;43.91
61337;BME280;47212;41.326;2.104;2023-03-03T08:01:38;101591.50;;;10.76;43.79
61337;BME280;47212;41.326;2.104;2023-03-03T08:06:57;101593.66;;;11.20;42.51
61337;BME280;47212;41.326;2.104;2023-03-03T08:12:31;101610.31;;;11.52;42.35
61337;BME280;47212;41.326;2.104;2023-03-03T08:17:39;101612.72;;;11.98;42.17
61337;BME280;47212;41.326;2.104;2023-03-03T08:22:54;101616.53;;;12.36;41.46
61337;BME280;47212;41.326;2.104;2023-03-03T08:28:03;101620.66;;;12.60;40.47
61337;BME280;47212;41.326;2.104;2023-03-03T08:33:15;101612.25;;;12.89;41.42
61337;BME280;47212;41.326;2.104;2023-03-03T08:38:22;101626.22;;;13.14;41.01
61337;BME280;47212;41.326;2.104;2023-03-03T08:43:26;101627.03;;;13.36;40.03
61337;BME280;47212;41.326;2.104;2023-03-03T08:48:39;101624.38;;;13.47;39.61
61337;BME280;47212;41.326;2.104;2023-03-03T08:53:51;101634.41;;;13.68;38.62
61337;BME280;47212;41.326;2.104;2023-03-03T08:58:55;101634.00;;;13.86;39.20
61337;BME280;47212;41.326;2.104;2023-03-03T09:04:08;101637.00;;;13.85;38.32
61337;BME280;47212;41.326;2.104;2023-03-03T09:09:15;101640.91;;;13.94;38.60
61337;BME280;47212;41.326;2.104;2023-03-03T09:14:27;101644.81;;;14.03;38.14
61337;BME280;47212;41.326;2.104;2023-03-03T09:19:34;101645.91;;;14.02;38.59
61337;BME280;47212;41.326;2.104;2023-03-03T09:24:49;101642.13;;;14.08;37.65
61337;BME280;47212;41.326;2.104;2023-03-03T09:30:32;101640.53;;;14.17;36.99
61337;BME280;47212;41.326;2.104;2023-03-03T09:36:17;101639.53;;;14.33;37.20
61337;BME280;47212;41.326;2.104;2023-03-03T10:15:53;101628.38;;;15.18;37.02
61337;BME280;47212;41.326;2.104;2023-03-03T10:27:46;101633.06;;;15.48;35.09
61337;BME280;47212;41.326;2.104;2023-03-03T10:33:04;101629.03;;;15.66;36.32
61337;BME280;47212;41.326;2.104;2023-03-03T10:55:24;101627.59;;;16.09;34.26
61337;BME280;47212;41.326;2.104;2023-03-03T11:01:08;101627.59;;;16.19;34.14
61337;BME280;47212;41.326;2.104;2023-03-03T11:07:06;101631.09;;;16.35;32.19
61337;BME280;47212;41.326;2.104;2023-03-03T11:47:16;101627.09;;;15.81;35.01
61337;BME280;47212;41.326;2.104;2023-03-03T11:58:02;101624.34;;;15.97;35.19
61337;BME280;47212;41.326;2.104;2023-03-03T12:15:07;101610.63;;;15.81;36.73
61337;BME280;47212;41.326;2.104;2023-03-03T12:37:04;101590.84;;;15.59;36.62
61337;BME280;47212;41.326;2.104;2023-03-03T12:48:00;101594.69;;;15.83;36.06
61337;BME280;47212;41.326;2.104;2023-03-03T13:10:34;101571.63;;;15.54;36.79
61337;BME280;47212;41.326;2.104;2023-03-03T13:22:04;101572.16;;;15.30;37.38
61337;BME280;47212;41.326;2.104;2023-03-03T13:27:22;101563.38;;;15.28;38.03
61337;BME280;47212;41.326;2.104;2023-03-03T13:32:36;101562.28;;;15.29;37.66
61337;BME280;47212;41.326;2.104;2023-03-03T13:37:52;101552.97;;;15.25;38.40
61337;BME280;47212;41.326;2.104;2023-03-03T13:43:03;101559.53;;;15.19;37.68
61337;BME280;47212;41.326;2.104;2023-03-03T13:48:42;101557.34;;;15.06;38.03
61337;BME280;47212;41.326;2.104;2023-03-03T13:54:05;101557.06;;;15.03;38.92
61337;BME280;47212;41.326;2.104;2023-03-03T13:59:30;101553.75;;;14.85;39.37
61337;BME280;47212;41.326;2.104;2023-03-03T14:05:00;101546.28;;;14.71;40.25
61337;BME280;47212;41.326;2.104;2023-03-03T14:15:58;101539.13;;;14.54;41.39
61337;BME280;47212;41.326;2.104;2023-03-03T14:21:48;101520.66;;;14.29;42.17
61337;BME280;47212;41.326;2.104;2023-03-03T14:26:57;101522.22;;;14.15;41.96
61337;BME280;47212;41.326;2.104;2023-03-03T14:32:26;101522.22;;;14.10;42.00
61337;BME280;47212;41.326;2.104;2023-03-03T14:37:50;101532.34;;;14.10;42.73
61337;BME280;47212;41.326;2.104;2023-03-03T14:43:23;101535.63;;;14.12;44.19
61337;BME280;47212;41.326;2.104;2023-03-03T14:48:29;101541.63;;;14.03;43.42
61337;BME280;47212;41.326;2.104;2023-03-03T14:53:45;101535.78;;;13.90;44.45
61337;BME280;47212;41.326;2.104;2023-03-03T14:59:16;101529.16;;;13.81;46.18
61337;BME280;47212;41.326;2.104;2023-03-03T15:04:26;101532.72;;;13.81;45.52
61337;BME280;47212;41.326;2.104;2023-03-03T15:09:49;101527.22;;;13.81;45.80
61337;BME280;47212;41.326;2.104;2023-03-03T15:15:18;101525.78;;;13.68;46.00
61337;BME280;47212;41.326;2.104;2023-03-03T15:20:51;101532.94;;;13.75;46.70
61337;BME280;47212;41.326;2.104;2023-03-03T15:31:44;101522.16;;;13.58;46.57
61337;BME280;47212;41.326;2.104;2023-03-03T15:43:20;101522.03;;;13.37;47.62
61337;BME280;47212;41.326;2.104;2023-03-03T15:54:35;101520.59;;;13.30;46.84
61337;BME280;47212;41.326;2.104;2023-03-03T16:00:15;101516.94;;;13.19;46.31
61337;BME280;47212;41.326;2.104;2023-03-03T16:05:42;101520.63;;;13.03;46.63
61337;BME280;47212;41.326;2.104;2023-03-03T16:11:25;101521.19;;;13.05;46.89
61337;BME280;47212;41.326;2.104;2023-03-03T16:16:46;101513.50;;;13.02;46.22
61337;BME280;47212;41.326;2.104;2023-03-03T16:27:51;101513.53;;;13.07;42.70
61337;BME280;47212;41.326;2.104;2023-03-03T16:39:11;101511.97;;;13.16;43.24
61337;BME280;47212;41.326;2.104;2023-03-03T17:01:37;101530.91;;;12.96;45.17
61337;BME280;47212;41.326;2.104;2023-03-03T17:06:53;101529.25;;;12.95;45.43
61337;BME280;47212;41.326;2.104;2023-03-03T17:17:55;101558.66;;;12.83;47.87
61337;BME280;47212;41.326;2.104;2023-03-03T17:45:19;101586.69;;;12.51;50.75
61337;BME280;47212;41.326;2.104;2023-03-03T17:51:18;101593.75;;;12.47;52.80
61337;BME280;47212;41.326;2.104;2023-03-03T17:56:41;101602.94;;;12.41;53.20
61337;BME280;47212;41.326;2.104;2023-03-03T18:08:01;101619.66;;;12.44;52.70
61337;BME280;47212;41.326;2.104;2023-03-03T18:35:39;101654.66;;;12.48;54.45
61337;BME280;47212;41.326;2.104;2023-03-03T18:57:09;101679.34;;;12.36;55.57
61337;BME280;47212;41.326;2.104;2023-03-03T19:02:36;101685.28;;;12.33;55.36
61337;BME280;47212;41.326;2.104;2023-03-03T19:13:40;101696.06;;;12.23;56.60
61337;BME280;47212;41.326;2.104;2023-03-03T19:24:27;101702.41;;;12.11;56.94
61337;BME280;47212;41.326;2.104;2023-03-03T19:29:50;101708.88;;;12.05;55.40
61337;BME280;47212;41.326;2.104;2023-03-03T19:35:52;101710.19;;;12.03;56.82
61337;BME280;47212;41.326;2.104;2023-03-03T19:47:01;101730.78;;;11.94;56.55
61337;BME280;47212;41.326;2.104;2023-03-03T19:52:39;101729.63;;;11.90;57.24
61337;BME280;47212;41.326;2.104;2023-03-03T20:14:21;101743.34;;;11.78;55.86
61337;BME280;47212;41.326;2.104;2023-03-03T20:25:55;101749.25;;;11.75;55.98
61337;BME280;47212;41.326;2.104;2023-03-03T20:47:15;101782.88;;;11.64;58.03
61337;BME280;47212;41.326;2.104;2023-03-03T20:58:05;101794.84;;;11.63;57.54
61337;BME280;47212;41.326;2.104;2023-03-03T21:03:50;101802.00;;;11.52;56.21
61337;BME280;47212;41.326;2.104;2023-03-03T21:08:58;101800.72;;;11.43;55.10
61337;BME280;47212;41.326;2.104;2023-03-03T21:14:33;101805.16;;;11.32;54.95
61337;BME280;47212;41.326;2.104;2023-03-03T21:19:41;101803.84;;;11.23;53.93
61337;BME280;47212;41.326;2.104;2023-03-03T21:24:54;101812.97;;;11.17;54.43
61337;BME280;47212;41.326;2.104;2023-03-03T21:30:20;101812.88;;;11.12;54.89
61337;BME280;47212;41.326;2.104;2023-03-03T21:35:55;101818.22;;;11.07;54.33
61337;BME280;47212;41.326;2.104;2023-03-03T21:41:02;101815.38;;;11.02;54.56
61337;BME280;47212;41.326;2.104;2023-03-03T21:46:06;101824.50;;;10.96;53.97
61337;BME280;47212;41.326;2.104;2023-03-03T21:51:14;101818.34;;;10.89;54.43
61337;BME280;47212;41.326;2.104;2023-03-03T21:56:24;101827.94;;;10.79;54.65
61337;BME280;47212;41.326;2.104;2023-03-03T22:01:29;101829.38;;;10.70;54.99
61337;BME280;47212;41.326;2.104;2023-03-03T22:06:40;101836.00;;;10.63;55.13
61337;BME280;47212;41.326;2.104;2023-03-03T22:11:45;101839.66;;;10.57;54.92
61337;BME280;47212;41.326;2.104;2023-03-03T22:16:49;101850.66;;;10.50;55.26
61337;BME280;47212;41.326;2.104;2023-03-03T22:21:55;101848.66;;;10.45;55.12
61337;BME280;47212;41.326;2.104;2023-03-03T22:26:59;101856.28;;;10.37;55.20
61337;BME280;47212;41.326;2.104;2023-03-03T22:32:12;101855.94;;;10.33;55.63
61337;BME280;47212;41.326;2.104;2023-03-03T22:37:19;101856.03;;;10.27;55.33
61337;BME280;47212;41.326;2.104;2023-03-03T22:42:25;101859.91;;;10.19;56.37
61337;BME280;47212;41.326;2.104;2023-03-03T22:47:35;101863.31;;;10.14;56.44
61337;BME280;47212;41.326;2.104;2023-03-03T22:52:40;101869.22;;;10.11;56.21
61337;BME280;47212;41.326;2.104;2023-03-03T22:57:55;101866.13;;;10.08;56.22
61337;BME280;47212;41.326;2.104;2023-03-03T23:02:57;101865.16;;;10.02;56.38
61337;BME280;47212;41.326;2.104;2023-03-03T23:08:05;101871.53;;;9.96;56.83
61337;BME280;47212;41.326;2.104;2023-03-03T23:13:08;101864.91;;;9.92;56.79
61337;BME280;47212;41.326;2.104;2023-03-03T23:18:16;101861.56;;;9.90;56.86
61337;BME280;47212;41.326;2.104;2023-03-03T23:23:22;101869.13;;;9.88;56.96
61337;BME280;47212;41.326;2.104;2023-03-03T23:28:28;101877.53;;;9.86;57.20
61337;BME280;47212;41.326;2.104;2023-03-03T23:33:42;101880.94;;;9.82;57.73
61337;BME280;47212;41.326;2.104;2023-03-03T23:38:46;101871.34;;;9.79;57.27
61337;BME280;47212;41.326;2.104;2023-03-03T23:44:03;101881.41;;;9.79;57.57
61337;BME280;47212;41.326;2.104;2023-03-03T23:49:07;101885.63;;;9.75;57.36
61337;BME280;47212;41.326;2.104;2023-03-03T23:54:14;101890.31;;;9.68;57.73
61337;BME280;47212;41.326;2.104;2023-03-03T23:59:27;101884.38;;;9.59;58.70
